createdAt,value
2023-02-19T00:03:14.430Z,8.10
2023-02-19T00:08:17.048Z,8.10
2023-02-19T00:13:19.809Z,11.10
2023-02-19T00:18:23.325Z,11.50
2023-02-19T00:23:27.059Z,11.70
2023-02-19T00:28:30.780Z,8.50
2023-02-19T00:33:36.504Z,6.40
2023-02-19T00:38:40.508Z,9.30
2023-02-19T00:43:43.184Z,12.60
2023-02-19T00:48:46.675Z,10.40
2023-02-19T00:53:49.641Z,16.10
2023-02-19T00:58:52.613Z,10.50
2023-02-19T01:03:55.430Z,7.70
2023-02-19T01:08:58.832Z,5.90
2023-02-19T01:14:02.346Z,10.80
2023-02-19T01:19:04.962Z,13.60
2023-02-19T01:24:07.609Z,9.50
2023-02-19T01:29:10.520Z,10.30
2023-02-19T01:34:13.157Z,7.70
2023-02-19T01:39:15.842Z,10.10
2023-02-19T01:44:18.511Z,8.20
2023-02-19T01:49:27.115Z,7.80
2023-02-19T01:54:34.804Z,7.70
2023-02-19T01:59:38.226Z,6.70
2023-02-19T02:04:41.005Z,6.80
2023-02-19T02:09:59.517Z,7.20
2023-02-19T02:15:03.120Z,7.30
2023-02-19T02:20:36.540Z,9.70
2023-02-19T02:25:55.265Z,7.60
2023-02-19T02:31:04.409Z,5.60
2023-02-19T02:36:14.712Z,7.60
2023-02-19T02:41:17.358Z,5.80
2023-02-19T02:46:28.175Z,6.60
2023-02-19T02:51:36.259Z,7.20
2023-02-19T02:56:41.333Z,7.80
2023-02-19T03:02:05.875Z,5.40
2023-02-19T03:07:10.448Z,11.80
2023-02-19T03:12:30.501Z,7.00
2023-02-19T03:17:57.874Z,6.40
2023-02-19T03:23:02.078Z,3.90
2023-02-19T03:28:08.790Z,9.70
2023-02-19T03:33:19.064Z,7.20
2023-02-19T03:38:40.716Z,5.60
2023-02-19T03:43:50.800Z,7.80
2023-02-19T03:49:00.107Z,10.90
2023-02-19T03:54:09.270Z,9.10
2023-02-19T03:59:17.358Z,11.20
2023-02-19T04:04:36.479Z,9.20
2023-02-19T04:09:46.820Z,7.00
2023-02-19T04:14:54.790Z,9.50
2023-02-19T04:20:00.817Z,5.10
2023-02-19T04:25:05.245Z,5.30
2023-02-19T04:30:11.282Z,6.30
2023-02-19T04:35:13.979Z,6.80
2023-02-19T04:40:17.229Z,6.90
2023-02-19T04:45:19.779Z,4.50
2023-02-19T04:50:23.310Z,7.10
2023-02-19T04:55:26.149Z,8.20
2023-02-19T05:00:28.740Z,6.60
2023-02-19T05:05:31.575Z,5.80
2023-02-19T05:10:34.732Z,7.00
2023-02-19T05:15:37.387Z,10.40
2023-02-19T05:20:40.085Z,5.60
2023-02-19T05:25:42.724Z,5.50
2023-02-19T05:30:51.433Z,8.50
2023-02-19T05:35:55.986Z,6.90
2023-02-19T05:41:16.943Z,6.10
2023-02-19T05:46:22.840Z,5.00
2023-02-19T05:51:27.448Z,4.90
2023-02-19T05:56:33.253Z,3.70
2023-02-19T06:01:36.175Z,7.60
2023-02-19T06:06:39.276Z,7.90
2023-02-19T06:11:43.360Z,8.20
2023-02-19T06:16:46.054Z,9.60
2023-02-19T06:21:50.357Z,7.80
2023-02-19T06:26:52.943Z,7.20
2023-02-19T06:31:55.725Z,8.00
2023-02-19T06:36:59.256Z,6.40
2023-02-19T06:42:01.825Z,7.10
2023-02-19T06:47:05.464Z,5.20
2023-02-19T06:52:08.182Z,6.50
2023-02-19T06:57:10.778Z,5.10
2023-02-19T07:02:13.701Z,6.90
2023-02-19T07:07:17.638Z,7.80
2023-02-19T07:12:20.224Z,8.50
2023-02-19T07:17:22.820Z,8.70
2023-02-19T07:22:25.673Z,7.10
2023-02-19T07:27:28.300Z,6.50
2023-02-19T07:32:31.006Z,4.20
2023-02-19T07:37:34.696Z,6.70
2023-02-19T07:42:37.728Z,7.10
2023-02-19T07:47:40.377Z,6.60
2023-02-19T07:52:43.100Z,3.60
2023-02-19T07:57:45.731Z,7.40
2023-02-19T08:03:04.430Z,9.10
2023-02-19T08:08:09.615Z,7.30
2023-02-19T08:13:31.066Z,9.00
2023-02-19T08:23:38.181Z,6.00
2023-02-19T08:28:41.828Z,7.50
2023-02-19T08:33:44.432Z,8.70
2023-02-19T08:38:47.818Z,9.10
2023-02-19T08:43:50.485Z,7.10
2023-02-19T08:48:53.206Z,9.10
2023-02-19T08:53:55.914Z,11.80
2023-02-19T08:58:58.526Z,12.80
2023-02-19T09:04:01.163Z,10.30
2023-02-19T09:09:03.940Z,6.40
2023-02-19T09:14:07.602Z,3.80
2023-02-19T09:19:10.213Z,7.70
2023-02-19T09:24:13.470Z,6.30
2023-02-19T09:29:21.158Z,10.10
2023-02-19T09:34:25.331Z,6.80
2023-02-19T09:39:29.388Z,6.90
2023-02-19T09:44:38.107Z,9.40
2023-02-19T09:49:49.820Z,5.50
2023-02-19T09:54:57.995Z,5.80
2023-02-19T10:00:07.233Z,5.70
2023-02-19T10:05:18.172Z,7.90
2023-02-19T10:10:27.378Z,6.40
2023-02-19T10:15:38.113Z,5.20
2023-02-19T10:20:40.838Z,6.70
2023-02-19T10:25:54.316Z,6.60
2023-02-19T10:31:00.342Z,10.20
2023-02-19T10:36:06.216Z,8.20
2023-02-19T10:41:23.075Z,6.50
2023-02-19T10:46:29.684Z,6.60
2023-02-19T10:51:35.168Z,5.30
2023-02-19T10:56:40.758Z,6.10
2023-02-19T11:02:04.013Z,4.20
2023-02-19T11:07:13.932Z,5.60
2023-02-19T11:12:33.385Z,5.60
2023-02-19T11:17:36.585Z,3.90
2023-02-19T11:22:41.988Z,3.70
2023-02-19T11:28:06.813Z,6.00
2023-02-19T11:33:24.376Z,4.30
2023-02-19T11:38:27.252Z,5.60
2023-02-19T11:43:53.372Z,4.00
2023-02-19T11:49:27.631Z,5.50
2023-02-19T11:54:39.433Z,4.00
2023-02-19T12:00:01.091Z,4.00
2023-02-19T12:05:20.531Z,2.40
2023-02-19T12:10:55.146Z,4.00
2023-02-19T12:16:04.910Z,3.50
2023-02-19T12:21:18.626Z,2.70
2023-02-19T12:26:30.257Z,3.70
2023-02-19T12:31:58.729Z,2.30
2023-02-19T12:37:33.320Z,4.50
2023-02-19T12:42:54.819Z,3.10
2023-02-19T12:48:06.316Z,3.90
2023-02-19T12:53:51.494Z,3.30
2023-02-19T12:59:01.131Z,2.30
2023-02-19T13:04:39.657Z,1.60
2023-02-19T13:09:55.280Z,3.70
2023-02-19T13:15:02.632Z,3.10
2023-02-19T13:20:20.360Z,3.40
2023-02-19T13:26:00.168Z,2.90
2023-02-19T13:31:11.908Z,5.30
2023-02-19T13:36:24.086Z,3.80
2023-02-19T13:46:46.975Z,2.80
2023-02-19T13:51:57.213Z,4.90
2023-02-19T13:57:29.326Z,4.90
2023-02-19T14:02:35.148Z,3.00
2023-02-19T14:08:03.066Z,3.70
2023-02-19T14:13:10.046Z,4.30
2023-02-19T14:18:43.671Z,2.20
2023-02-19T14:23:56.711Z,3.20
2023-02-19T14:29:01.532Z,4.20
2023-02-19T14:34:14.112Z,3.20
2023-02-19T14:39:40.152Z,4.30
2023-02-19T14:44:57.419Z,4.70
2023-02-19T14:50:04.702Z,5.30
2023-02-19T14:55:20.725Z,4.70
2023-02-19T15:00:43.658Z,3.80
2023-02-19T15:05:46.687Z,4.20
2023-02-19T15:10:50.489Z,2.30
2023-02-19T15:15:55.376Z,4.10
2023-02-19T15:21:03.965Z,4.10
2023-02-19T15:26:21.289Z,4.50
2023-02-19T15:31:24.004Z,6.60
2023-02-19T15:36:33.970Z,9.40
2023-02-19T15:41:36.759Z,4.30
2023-02-19T15:46:41.622Z,2.80
2023-02-19T15:51:57.094Z,4.10
2023-02-19T15:57:06.007Z,5.60
2023-02-19T16:02:13.548Z,3.90
2023-02-19T16:07:32.756Z,5.00
2023-02-19T16:12:35.992Z,3.50
2023-02-19T16:17:43.161Z,3.30
2023-02-19T16:22:45.976Z,6.60
2023-02-19T16:27:48.872Z,8.70
2023-02-19T16:33:21.936Z,4.90
2023-02-19T16:38:24.709Z,4.10
2023-02-19T16:43:44.872Z,2.90
2023-02-19T16:48:48.366Z,3.40
2023-02-19T16:53:51.164Z,4.10
2023-02-19T16:58:53.907Z,9.60
2023-02-19T17:04:02.933Z,5.90
2023-02-19T17:09:09.175Z,3.70
2023-02-19T17:14:13.156Z,2.90
2023-02-19T17:19:18.301Z,5.50
2023-02-19T17:24:20.986Z,3.80
2023-02-19T17:29:24.551Z,6.20
2023-02-19T17:34:30.876Z,5.10
2023-02-19T17:39:33.514Z,4.90
2023-02-19T17:44:36.143Z,7.10
2023-02-19T17:49:38.765Z,4.00
2023-02-19T17:54:42.946Z,3.00
2023-02-19T17:59:45.639Z,3.80
2023-02-19T18:04:48.192Z,3.10
2023-02-19T18:09:50.772Z,3.50
2023-02-19T18:14:54.601Z,1.90
2023-02-19T18:19:57.182Z,2.70
2023-02-19T18:25:00.105Z,2.30
2023-02-19T18:30:03.302Z,3.20
2023-02-19T18:35:06.472Z,2.80
2023-02-19T18:40:11.456Z,2.30
2023-02-19T18:45:14.108Z,1.40
2023-02-19T18:50:18.239Z,4.30
2023-02-19T18:55:23.291Z,4.50
2023-02-19T19:00:26.659Z,2.90
2023-02-19T19:05:29.356Z,4.10
2023-02-19T19:10:31.956Z,5.30
2023-02-19T19:15:35.296Z,2.20
2023-02-19T19:20:37.983Z,3.00
2023-02-19T19:25:40.558Z,2.50
2023-02-19T19:30:43.257Z,1.60
2023-02-19T19:35:45.965Z,4.40
2023-02-19T19:40:48.756Z,1.60
2023-02-19T19:45:51.474Z,4.00
2023-02-19T19:50:56.654Z,3.20
2023-02-19T19:56:01.126Z,3.10
2023-02-19T20:01:07.070Z,2.80
2023-02-19T20:06:10.182Z,4.00
2023-02-19T20:11:13.096Z,3.20
2023-02-19T20:16:16.087Z,2.80
2023-02-19T20:21:18.852Z,7.30
2023-02-19T20:26:27.215Z,3.50
2023-02-19T20:31:33.836Z,3.60
2023-02-19T20:36:44.646Z,6.50
2023-02-19T20:41:50.545Z,5.20
2023-02-19T20:46:54.952Z,6.20
2023-02-19T20:52:00.494Z,4.30
2023-02-19T20:57:05.537Z,6.00
2023-02-19T21:02:16.779Z,4.60
2023-02-19T21:07:20.147Z,5.90
2023-02-19T21:12:23.265Z,3.30
2023-02-19T21:17:26.042Z,4.80
2023-02-19T21:22:31.181Z,7.70
2023-02-19T21:27:34.950Z,3.90
2023-02-19T21:32:37.565Z,6.20
2023-02-19T21:37:43.074Z,4.00
2023-02-19T21:42:46.412Z,6.00
2023-02-19T21:47:52.036Z,3.90
2023-02-19T21:52:55.276Z,8.00
2023-02-19T21:57:58.381Z,8.30
2023-02-19T22:03:01.023Z,9.20
2023-02-19T22:08:03.924Z,8.20
2023-02-19T22:13:06.542Z,7.40
2023-02-19T22:18:09.187Z,11.30
2023-02-19T22:23:11.750Z,8.20
2023-02-19T22:28:14.605Z,6.00
2023-02-19T22:33:17.186Z,6.40
2023-02-19T22:38:20.127Z,8.20
2023-02-19T22:43:22.698Z,8.00
2023-02-19T22:48:30.094Z,4.70
2023-02-19T22:53:33.092Z,4.80
2023-02-19T22:58:35.732Z,6.50
2023-02-19T23:03:55.995Z,6.80
2023-02-19T23:09:04.558Z,9.70
2023-02-19T23:14:07.767Z,8.10
2023-02-19T23:19:13.325Z,7.30
2023-02-19T23:24:17.894Z,3.90
2023-02-19T23:29:25.167Z,6.20
2023-02-19T23:34:28.584Z,3.60
2023-02-19T23:39:31.240Z,7.90
2023-02-19T23:44:33.959Z,3.90
2023-02-19T23:49:36.608Z,4.10
2023-02-19T23:54:39.452Z,3.40
2023-02-19T23:59:42.062Z,4.50
